Wednesday, May 24, 2017, 4:21 AM EDT
Back to Local

KBGR, Bangor Int'l Airport

Location: Bangor, ME, United States Lat: 44.8
Local Time: 4:21 AM EDT ( 8:21 GMT) Lon: -68.817
Time Zone: US/Eastern Elev: 193 ft

Show me the last for .
Show Decoded

2017-05-24 03:53 METAR KBGR 240753Z 00000KT 10SM BKN250 08/07 A2979 RMK AO2 SLP088 T00780072 =
2017-05-24 02:53 METAR KBGR 240653Z 00000KT 10SM FEW250 08/08 A2979 RMK AO2 SLP087 T00830078 =
2017-05-24 01:53 METAR KBGR 240553Z 00000KT 10SM FEW250 09/08 A2980 RMK AO2 SLP091 T00890083
                 10161 20083 51003 =
2017-05-24 00:53 METAR KBGR 240453Z 00000KT 10SM FEW250 09/08 A2980 RMK AO2 SLP090 T00890083
                 402170083 =
2017-05-23 23:53 METAR KBGR 240353Z 00000KT 10SM SCT250 10/09 A2980 RMK AO2 SLP091 T01000094 =
2017-05-23 22:53 METAR KBGR 240253Z 19003KT 10SM FEW250 12/10 A2979 RMK AO2 SLP088 T01170100
                 50007 =
2017-05-23 21:53 METAR KBGR 240153Z COR 20005KT 10SM FEW250 13/10 A2979 RMK AO2 SLP088 T01280100
                 =
2017-05-23 20:53 METAR KBGR 240053Z 19006KT 10SM FEW080 SCT250 14/10 A2979 RMK AO2 SLP085
                 T01390100 =
2017-05-23 19:53 METAR KBGR 232353Z 19006KT 10SM FEW070 BKN250 16/11 A2977 RMK AO2 SLP081
                 T01610106 10217 20161 53004 =
2017-05-23 18:53 METAR KBGR 232253Z VRB04KT 10SM FEW060 BKN250 20/07 A2977 RMK AO2 SLP079
                 T02000072 =
2017-05-23 17:53 METAR KBGR 232153Z VRB05KT 10SM FEW060 BKN250 21/07 A2975 RMK AO2 SLP074
                 T02110072 =
2017-05-23 16:53 METAR KBGR 232053Z 26007KT 230V320 10SM FEW055 BKN250 21/07 A2976 RMK AO2 SLP076
                 T02060072 56020 =
2017-05-23 15:53 METAR KBGR 231953Z VRB06KT 10SM FEW050 BKN250 21/08 A2977 RMK AO2 SLP078
                 T02110078 =
2017-05-23 14:53 METAR KBGR 231853Z 28006KT 10SM FEW050 SCT150 SCT250 19/08 A2979 RMK AO2 SLP088
                 T01940083 =
2017-05-23 13:53 METAR KBGR 231753Z 27010G22KT 10SM SCT045 SCT120 BKN200 19/08 A2982 RMK AO2
                 SLP096 T01890083 10189 20089 58022 =
2017-05-23 12:53 METAR KBGR 231653Z 28008KT 250V310 10SM SCT040 BKN120 BKN200 18/08 A2985 RMK AO2
                 SLP105 T01780083 =
2017-05-23 11:53 METAR KBGR 231553Z 27010KT 10SM SCT032 BKN120 BKN200 17/08 A2986 RMK AO2 SLP110
                 T01670078 =
2017-05-23 11:27 METAR KBGR 231527Z VRB05KT 10SM SCT019 BKN100 BKN180 16/09 A2986 RMK AO2
                 T01560089 =
2017-05-23 10:53 METAR KBGR 231453Z VRB03KT 10SM BKN016 13/10 A2988 RMK AO2 SLP119 T01330100
                 58010 =
2017-05-23 10:46 METAR KBGR 231446Z 24005KT 10SM BKN016 14/09 A2989 RMK AO2 T01390094 =
2017-05-23 10:17 METAR KBGR 231417Z VRB05KT 10SM BKN011 12/09 A2990 RMK AO2 T01220094 =
2017-05-23 09:53 METAR KBGR 231353Z 25003KT 10SM OVC007 11/09 A2990 RMK AO2 SLP125 T01110094 =
2017-05-23 08:53 METAR KBGR 231253Z 00000KT 10SM OVC005 09/08 A2991 RMK AO2 SLP130 T00940083 =
2017-05-23 08:51 METAR KBGR 231251Z 00000KT 10SM OVC005 09/08 A2991 RMK AO2 =
2017-05-23 07:53 METAR KBGR 231153Z 29003KT 10SM OVC004 09/08 A2992 RMK AO2 SLP133 60000 70008
                 T00890078 10089 20083 58001 =
2017-05-23 06:53 METAR KBGR 231053Z 21005KT 4SM BR OVC003 08/08 A2993 RMK AO2 SLP134 T00830083 =
2017-05-23 05:53 METAR KBGR 230953Z 19004KT 4SM BR OVC003 08/08 A2993 RMK AO2 SLP136 T00830078 =
2017-05-23 04:53 METAR KBGR 230853Z 16005KT 10SM OVC004 08/08 A2993 RMK AO2 SLP134 60000
                 T00830078 58013 =
2017-05-23 04:23 METAR KBGR 230823Z 17004KT 10SM OVC004 09/08 A2993 RMK AO2 T00890083 =

Support USWX by starting your Amazon purchase here.